»·PEaware :: N520MJ KSBP-KRNM

N520MJ :: KSBP-KRNM

FLIGHT INFORMATION

Flight Status: Arrived
Operator: Privately registered:
United States
More flights under this callsign
Pilot: Manuel P. (9695)
Aircraft: BOMBARDIER BD-100 CHALLENGER 300
(CL30)
More flights by this aircraft type
Origin: KSBP San Luis Co Regl
United States
Destination: KRNM Ramona
United States
More flights between these airports :: More routes between these airports
Route: +RZS VTU V208 JLI
File this flight plan on PilotEdge
Remarks: SBAN69 TEC ROUTE
Altitude:
(Current/Filed)
11,000ft
Speed:
(Current/Filed)
400kts
Departed: 22-Jul-17 10:07 AM
Arrived: 22-Jul-17 10:57 AM
Distance/Time
Traveled:
227nm/0:50
Distance/Time
To Go:
Arrived

Flight Plot

Page will automatically refresh every two minutes.


Map Options




Map Legend


Flown Route
Filed Route
Departure Airport
Arrival Airport
Navaid (VOR, NDB)
Fix

Horizontal Profiles

Position Reports

Time Latitude Longitude Heading Altitude Ground
Speed
22-Jul-17 09:58 35.238907 -120.641370 350 217ft 0kts
22-Jul-17 09:59 35.238907 -120.641370 350 217ft 0kts
22-Jul-17 10:00 35.238907 -120.641370 350 217ft 0kts
22-Jul-17 10:01 35.238907 -120.641370 350 217ft 0kts
22-Jul-17 10:02 35.238907 -120.641370 350 217ft 0kts
22-Jul-17 10:03 35.238907 -120.641370 350 217ft 0kts
22-Jul-17 10:04 35.238907 -120.641370 350 217ft 0kts
22-Jul-17 10:05 35.238907 -120.641370 350 217ft 0kts
22-Jul-17 10:06 35.238332 -120.641015 122 217ft 7kts
22-Jul-17 10:07 35.236901 -120.638303 128 218ft 12kts
22-Jul-17 10:08 35.234627 -120.634292 125 218ft 16kts
22-Jul-17 10:09 35.233372 -120.632403 165 217ft 1kts
22-Jul-17 10:10 35.239138 -120.644247 304 271ft 163kts
22-Jul-17 10:11 35.272572 -120.706716 303 3617ft 258kts
22-Jul-17 10:12 35.243304 -120.766498 167 6662ft 264kts
22-Jul-17 10:13 35.210837 -120.695439 104 7989ft 262kts
22-Jul-17 10:14 35.182421 -120.607771 120 9807ft 285kts
22-Jul-17 10:15 35.132698 -120.524943 130 11003ft 347kts
22-Jul-17 10:16 35.065051 -120.434788 133 10979ft 348kts
22-Jul-17 10:17 34.999370 -120.353597 135 10980ft 329kts
22-Jul-17 10:18 34.936080 -120.277191 135 10982ft 318kts
22-Jul-17 10:19 34.873268 -120.201999 136 10992ft 331kts
22-Jul-17 10:20 34.804716 -120.120275 136 10990ft 356kts
22-Jul-17 10:21 34.734439 -120.036762 136 10985ft 354kts
22-Jul-17 10:22 34.662905 -119.951991 136 12974ft 369kts
22-Jul-17 10:23 34.588779 -119.864423 136 16582ft 385kts
22-Jul-17 10:24 34.511537 -119.770633 126 19831ft 408kts
22-Jul-17 10:25 34.446547 -119.653929 124 22793ft 429kts
22-Jul-17 10:26 34.379204 -119.530861 124 22997ft 448kts
22-Jul-17 10:27 34.310514 -119.405147 123 22994ft 447kts
22-Jul-17 10:28 34.244862 -119.285360 124 22993ft 444kts
22-Jul-17 10:29 34.176946 -119.161733 124 22993ft 443kts
22-Jul-17 10:30 34.091235 -119.063712 166 23004ft 434kts
22-Jul-17 10:31 33.972971 -119.038260 173 22029ft 439kts
22-Jul-17 10:32 33.860268 -119.023694 174 19304ft 409kts
22-Jul-17 10:33 33.764378 -118.965326 134 16488ft 400kts
22-Jul-17 10:34 33.693145 -118.871467 131 14939ft 352kts
22-Jul-17 10:35 33.633078 -118.787339 130 14952ft 330kts
22-Jul-17 10:36 33.571592 -118.699915 130 14982ft 363kts
22-Jul-17 10:37 33.506277 -118.606737 130 14976ft 382kts
22-Jul-17 10:38 33.437672 -118.508956 130 14948ft 385kts
22-Jul-17 10:39 33.379026 -118.410717 103 12853ft 355kts
22-Jul-17 10:40 33.360812 -118.298840 101 10981ft 333kts
22-Jul-17 10:41 33.346161 -118.195277 100 10982ft 326kts
22-Jul-17 10:42 33.330755 -118.081688 100 10929ft 368kts
22-Jul-17 10:43 33.314633 -117.961291 100 10916ft 356kts
22-Jul-17 10:44 33.299843 -117.851070 100 9295ft 302kts
22-Jul-17 10:45 33.287236 -117.758231 99 7132ft 276kts
22-Jul-17 10:46 33.275097 -117.676634 102 7005ft 238kts
22-Jul-17 10:47 33.262567 -117.595030 100 7017ft 274kts
22-Jul-17 10:48 33.250880 -117.502611 98 7002ft 284kts
22-Jul-17 10:49 33.215665 -117.418944 120 7005ft 287kts
22-Jul-17 10:50 33.175224 -117.339355 121 6988ft 271kts
22-Jul-17 10:51 33.137216 -117.264576 121 6803ft 264kts
22-Jul-17 10:52 33.099790 -117.191492 121 5304ft 253kts
22-Jul-17 10:53 33.065478 -117.124619 121 4984ft 219kts
22-Jul-17 10:54 33.035832 -117.066593 118 4968ft 190kts
22-Jul-17 10:55 33.024260 -117.010169 89 4165ft 169kts
22-Jul-17 10:56 33.021491 -116.952869 97 3643ft 168kts
22-Jul-17 10:57 33.010544 -116.901618 113 3095ft 156kts
22-Jul-17 10:58 33.009044 -116.859022 18 2940ft 145kts
22-Jul-17 10:59 33.035223 -116.887621 277 2013ft 144kts
22-Jul-17 11:00 33.039843 -116.919676 286 1402ft 8kts
22-Jul-17 11:01 33.040416 -116.919884 27 1401ft 0kts
22-Jul-17 11:02 33.039974 -116.915994 99 1402ft 22kts
22-Jul-17 11:03 33.040276 -116.913513 7 1401ft 1kts
22-Jul-17 11:04 33.040672 -116.913246 103 1401ft 0kts
22-Jul-17 11:05 33.040672 -116.913246 103 1401ft 0kts
22-Jul-17 11:06 33.040672 -116.913246 103 1401ft 0kts
22-Jul-17 11:07 33.040672 -116.913246 103 1401ft 0kts
22-Jul-17 11:08 33.040672 -116.913246 103 1401ft 0kts
22-Jul-17 11:09 33.040672 -116.913246 103 1401ft 0kts
22-Jul-17 11:10 33.040672 -116.913246 103 1401ft 0kts
22-Jul-17 11:11 33.040672 -116.913246 103 1401ft 0kts
22-Jul-17 11:12 33.040672 -116.913246 103 1401ft 0kts
22-Jul-17 11:13 33.040672 -116.913246 103 1401ft 0kts
22-Jul-17 11:14 33.040672 -116.913246 103 1401ft 0kts

Navigation Log

Ident Type
1. KSBP Airport
2. RZS Navaid
3. VTU Navaid
4. WEEZL Fix
5. SXC Navaid
6. AVOLS Fix
7. PACIF Fix
8. HUBRD Fix
9. OCN Navaid
10. VISTA Fix
11. ROBNN Fix
12. BONDO Fix
13. JLI Navaid
14. KRNM Airport